createdAt,value
2019-05-26T00:00:59.320Z,989.84
2019-05-26T00:01:59.244Z,989.90
2019-05-26T00:02:59.158Z,989.83
2019-05-26T00:03:59.091Z,989.87
2019-05-26T00:04:59.003Z,989.82
2019-05-26T00:05:58.933Z,989.84
2019-05-26T00:06:58.848Z,989.84
2019-05-26T00:07:58.769Z,989.82
2019-05-26T00:08:58.692Z,989.81
2019-05-26T00:09:58.615Z,989.82
2019-05-26T00:10:58.537Z,989.82
2019-05-26T00:11:58.459Z,989.81
2019-05-26T00:12:58.381Z,989.79
2019-05-26T00:13:58.303Z,989.80
2019-05-26T00:14:58.227Z,989.79
2019-05-26T00:15:58.148Z,989.79
2019-05-26T00:16:58.070Z,989.76
2019-05-26T00:17:57.993Z,989.80
2019-05-26T00:18:57.914Z,989.78
2019-05-26T00:19:57.837Z,989.78
2019-05-26T00:20:57.758Z,989.79
2019-05-26T00:21:57.708Z,989.80
2019-05-26T00:22:57.604Z,989.75
2019-05-26T00:23:57.526Z,989.79
2019-05-26T00:24:57.448Z,989.74
2019-05-26T00:25:57.372Z,989.75
2019-05-26T00:26:57.293Z,989.72
2019-05-26T00:27:57.215Z,989.69
2019-05-26T00:28:57.138Z,989.71
2019-05-26T00:29:57.069Z,989.69
2019-05-26T00:30:56.982Z,989.71
2019-05-26T00:31:56.903Z,989.66
2019-05-26T00:32:56.825Z,989.65
2019-05-26T00:33:56.748Z,989.62
2019-05-26T00:34:56.671Z,989.65
2019-05-26T00:35:56.593Z,989.63
2019-05-26T00:36:56.515Z,989.60
2019-05-26T00:37:56.438Z,989.64
2019-05-26T00:38:56.361Z,989.61
2019-05-26T00:39:56.281Z,989.63
2019-05-26T00:40:56.205Z,989.66
2019-05-26T00:41:56.127Z,989.65
2019-05-26T00:42:56.049Z,989.62
2019-05-26T00:43:55.977Z,989.62
2019-05-26T00:44:55.893Z,989.60
2019-05-26T00:45:55.818Z,989.57
2019-05-26T00:46:55.737Z,989.54
2019-05-26T00:47:55.661Z,989.58
2019-05-26T00:48:55.637Z,989.55
2019-05-26T00:49:55.503Z,989.58
2019-05-26T00:50:55.425Z,989.59
2019-05-26T00:51:55.347Z,989.60
2019-05-26T00:52:56.696Z,989.57
2019-05-26T00:53:55.196Z,989.58
2019-05-26T00:54:55.113Z,989.56
2019-05-26T00:55:55.039Z,989.57
2019-05-26T00:56:54.958Z,989.60
2019-05-26T00:57:54.879Z,989.63
2019-05-26T00:58:54.801Z,989.62
2019-05-26T00:59:54.721Z,989.63
2019-05-26T01:00:54.643Z,989.65
2019-05-26T01:01:54.566Z,989.68
2019-05-26T01:02:54.488Z,989.66
2019-05-26T01:03:54.414Z,989.67
2019-05-26T01:04:54.332Z,989.66
2019-05-26T01:05:54.251Z,989.63
2019-05-26T01:06:54.175Z,989.66
2019-05-26T01:08:05.961Z,989.66
2019-05-26T01:08:54.016Z,989.64
2019-05-26T01:09:53.937Z,989.61
2019-05-26T01:10:53.862Z,989.61
2019-05-26T01:11:53.778Z,989.60
2019-05-26T01:12:53.700Z,989.57
2019-05-26T01:13:53.623Z,989.57
2019-05-26T01:14:53.548Z,989.61
2019-05-26T01:15:53.468Z,989.61
2019-05-26T01:16:55.735Z,989.64
2019-05-26T01:17:53.309Z,989.64
2019-05-26T01:18:53.232Z,989.65
2019-05-26T01:19:53.153Z,989.60
2019-05-26T01:20:53.075Z,989.64
2019-05-26T01:21:52.998Z,989.64
2019-05-26T01:22:53.940Z,989.67
2019-05-26T01:23:52.842Z,989.65
2019-05-26T01:24:52.866Z,989.65
2019-05-26T01:25:52.688Z,989.64
2019-05-26T01:26:52.613Z,989.63
2019-05-26T01:27:52.533Z,989.62
2019-05-26T01:28:52.456Z,989.63
2019-05-26T01:29:52.379Z,989.64
2019-05-26T01:30:52.302Z,989.64
2019-05-26T01:31:52.226Z,989.63
2019-05-26T01:32:52.146Z,989.65
2019-05-26T01:33:52.071Z,989.63
2019-05-26T01:34:51.994Z,989.65
2019-05-26T01:35:51.922Z,989.66
2019-05-26T01:36:51.838Z,989.66
2019-05-26T01:37:51.770Z,989.65
2019-05-26T01:38:51.763Z,989.62
2019-05-26T01:39:51.606Z,989.65
2019-05-26T01:40:51.530Z,989.64
2019-05-26T01:41:51.464Z,989.65
2019-05-26T01:42:51.377Z,989.64
2019-05-26T01:43:51.299Z,989.69
2019-05-26T01:44:51.222Z,989.70
2019-05-26T01:45:51.145Z,989.67
2019-05-26T01:46:51.068Z,989.72
2019-05-26T01:47:50.990Z,989.72
2019-05-26T01:48:50.922Z,989.69
2019-05-26T01:49:50.837Z,989.75
2019-05-26T01:50:50.759Z,989.75
2019-05-26T01:51:50.681Z,989.75
2019-05-26T01:52:50.605Z,989.75
2019-05-26T01:53:50.529Z,989.78
2019-05-26T01:54:50.455Z,989.79
2019-05-26T01:55:50.373Z,989.79
2019-05-26T01:56:50.298Z,989.83
2019-05-26T01:57:50.221Z,989.80
2019-05-26T01:58:50.143Z,989.80
2019-05-26T01:59:50.063Z,989.78
2019-05-26T02:00:49.988Z,989.79
2019-05-26T02:01:49.911Z,989.79
2019-05-26T02:02:49.832Z,989.76
2019-05-26T02:03:49.755Z,989.79
2019-05-26T02:04:49.678Z,989.81
2019-05-26T02:05:49.626Z,989.78
2019-05-26T02:06:49.524Z,989.75
2019-05-26T02:07:49.447Z,989.75
2019-05-26T02:08:49.369Z,989.76
2019-05-26T02:09:49.293Z,989.77
2019-05-26T02:10:49.269Z,989.76
2019-05-26T02:11:49.136Z,989.77
2019-05-26T02:12:49.082Z,989.74
2019-05-26T02:13:48.982Z,989.75
2019-05-26T02:14:48.907Z,989.75
2019-05-26T02:15:48.827Z,989.77
2019-05-26T02:16:48.751Z,989.71
2019-05-26T02:17:48.674Z,989.73
2019-05-26T02:18:48.595Z,989.75
2019-05-26T02:19:48.519Z,989.74
2019-05-26T02:20:48.441Z,989.76
2019-05-26T02:21:48.386Z,989.74
2019-05-26T02:22:48.288Z,989.71
2019-05-26T02:23:48.209Z,989.75
2019-05-26T02:24:48.131Z,989.71
2019-05-26T02:25:48.057Z,989.71
2019-05-26T02:26:47.978Z,989.73
2019-05-26T02:27:47.899Z,989.73
2019-05-26T02:28:47.821Z,989.73
2019-05-26T02:29:47.745Z,989.74
2019-05-26T02:30:47.676Z,989.74
2019-05-26T02:31:47.594Z,989.74
2019-05-26T02:32:47.652Z,989.70
2019-05-26T02:33:47.442Z,989.71
2019-05-26T02:34:47.360Z,989.69
2019-05-26T02:35:47.281Z,989.72
2019-05-26T02:36:47.203Z,989.69
2019-05-26T02:37:47.134Z,989.76
2019-05-26T02:39:00.892Z,989.74
2019-05-26T02:39:46.970Z,989.74
2019-05-26T02:40:46.892Z,989.75
2019-05-26T02:41:46.815Z,989.78
2019-05-26T02:42:46.742Z,989.75
2019-05-26T02:43:46.659Z,989.79
2019-05-26T02:44:46.584Z,989.81
2019-05-26T02:45:46.505Z,989.80
2019-05-26T02:46:46.430Z,989.83
2019-05-26T02:47:46.450Z,989.82
2019-05-26T02:48:46.271Z,989.82
2019-05-26T02:49:46.196Z,989.88
2019-05-26T02:50:46.121Z,989.87
2019-05-26T02:51:46.043Z,989.92
2019-05-26T02:52:45.964Z,989.86
2019-05-26T02:53:45.888Z,989.90
2019-05-26T02:54:45.808Z,989.86
2019-05-26T02:55:45.730Z,989.83
2019-05-26T02:56:45.671Z,989.84
2019-05-26T02:57:45.577Z,989.85
2019-05-26T02:58:45.499Z,989.88
2019-05-26T02:59:45.420Z,989.86
2019-05-26T03:00:45.342Z,989.88
2019-05-26T03:02:02.197Z,989.88
2019-05-26T03:02:45.188Z,989.84
2019-05-26T03:03:45.112Z,989.82
2019-05-26T03:04:45.036Z,989.84
2019-05-26T03:05:44.981Z,989.82
2019-05-26T03:06:44.878Z,989.78
2019-05-26T03:07:44.804Z,989.81
2019-05-26T03:08:44.726Z,989.82
2019-05-26T03:09:44.646Z,989.80
2019-05-26T03:10:44.587Z,989.79
2019-05-26T03:11:44.489Z,989.77
2019-05-26T03:12:44.418Z,989.83
2019-05-26T03:13:44.336Z,989.80
2019-05-26T03:14:44.258Z,989.77
2019-05-26T03:15:44.181Z,989.80
2019-05-26T03:16:44.101Z,989.79
2019-05-26T03:17:44.075Z,989.80
2019-05-26T03:18:43.954Z,989.76
2019-05-26T03:19:43.920Z,989.82
2019-05-26T03:20:43.797Z,989.83
2019-05-26T03:21:43.713Z,989.79
2019-05-26T03:22:43.636Z,989.79
2019-05-26T03:23:43.556Z,989.81
2019-05-26T03:24:43.532Z,989.79
2019-05-26T03:25:43.405Z,989.77
2019-05-26T03:26:43.447Z,989.78
2019-05-26T03:27:43.248Z,989.83
2019-05-26T03:28:43.168Z,989.79
2019-05-26T03:29:43.093Z,989.82
2019-05-26T03:30:43.017Z,989.79
2019-05-26T03:31:42.936Z,989.81
2019-05-26T03:32:42.860Z,989.80
2019-05-26T03:33:42.780Z,989.76
2019-05-26T03:34:42.704Z,989.83
2019-05-26T03:35:42.623Z,989.79
2019-05-26T03:36:42.547Z,989.82
2019-05-26T03:37:42.473Z,989.81
2019-05-26T03:38:42.391Z,989.84
2019-05-26T03:39:45.995Z,989.84
2019-05-26T03:40:42.235Z,989.84
2019-05-26T03:41:42.212Z,989.84
2019-05-26T03:42:42.134Z,989.86
2019-05-26T03:43:42.001Z,989.83
2019-05-26T03:44:41.924Z,989.87
2019-05-26T03:45:41.851Z,989.80
2019-05-26T03:46:41.770Z,989.81
2019-05-26T03:47:41.693Z,989.81
2019-05-26T03:48:41.612Z,989.84
2019-05-26T03:49:41.534Z,989.85
2019-05-26T03:50:41.457Z,989.84
2019-05-26T03:51:41.379Z,989.85
2019-05-26T03:52:41.305Z,989.82
2019-05-26T03:53:41.222Z,989.83
2019-05-26T03:54:41.334Z,989.84
2019-05-26T03:55:41.067Z,989.83
2019-05-26T03:56:40.990Z,989.82
2019-05-26T03:57:40.913Z,989.83
2019-05-26T03:58:40.836Z,989.80
2019-05-26T03:59:40.756Z,989.79
2019-05-26T04:00:40.729Z,989.82
2019-05-26T04:01:40.601Z,989.80
2019-05-26T04:02:40.524Z,989.81
2019-05-26T04:03:40.446Z,989.81
2019-05-26T04:04:40.372Z,989.79
2019-05-26T04:05:40.291Z,989.78
2019-05-26T04:06:40.263Z,989.84
2019-05-26T04:07:40.136Z,989.83
2019-05-26T04:08:40.056Z,989.84
2019-05-26T04:09:39.978Z,989.86
2019-05-26T04:10:39.913Z,989.83
2019-05-26T04:11:39.875Z,989.89
2019-05-26T04:12:39.744Z,989.85
2019-05-26T04:13:39.670Z,989.86
2019-05-26T04:14:39.590Z,989.87
2019-05-26T04:15:39.512Z,989.85
2019-05-26T04:16:39.433Z,989.88
2019-05-26T04:17:39.357Z,989.86
2019-05-26T04:18:39.281Z,989.89
2019-05-26T04:19:39.202Z,989.90
2019-05-26T04:20:39.125Z,989.86
2019-05-26T04:21:39.047Z,989.84
2019-05-26T04:22:38.969Z,989.85
2019-05-26T04:23:38.891Z,989.84
2019-05-26T04:24:38.964Z,989.83
2019-05-26T04:25:38.734Z,989.86
2019-05-26T04:26:38.657Z,989.83
2019-05-26T04:27:38.581Z,989.82
2019-05-26T04:28:38.514Z,989.80
2019-05-26T04:29:38.424Z,989.79
2019-05-26T04:30:38.398Z,989.78
2019-05-26T04:31:38.270Z,989.79
2019-05-26T04:32:38.192Z,989.79
2019-05-26T04:33:38.115Z,989.79
2019-05-26T04:34:38.038Z,989.82
2019-05-26T04:35:37.959Z,989.86
2019-05-26T04:36:37.934Z,989.82
2019-05-26T04:37:37.806Z,989.83
2019-05-26T04:38:37.726Z,989.85
2019-05-26T04:39:37.651Z,989.85
2019-05-26T04:40:37.578Z,989.87
2019-05-26T04:41:37.495Z,989.87
2019-05-26T04:42:37.519Z,989.83
2019-05-26T04:43:37.341Z,989.88
2019-05-26T04:44:37.262Z,989.85
2019-05-26T04:45:37.188Z,989.86
2019-05-26T04:46:37.118Z,989.88
2019-05-26T04:47:37.082Z,989.89
2019-05-26T04:48:36.953Z,989.89
2019-05-26T04:49:37.771Z,989.90
2019-05-26T04:50:36.805Z,989.90
2019-05-26T04:51:36.721Z,989.92
2019-05-26T04:52:36.655Z,989.92
2019-05-26T04:53:36.731Z,989.90
2019-05-26T04:54:36.648Z,989.89
2019-05-26T04:55:36.412Z,989.92
2019-05-26T04:56:36.336Z,989.92
2019-05-26T04:57:36.259Z,989.93
2019-05-26T04:58:36.183Z,989.91
2019-05-26T04:59:36.105Z,989.90
2019-05-26T05:00:36.077Z,989.94
2019-05-26T05:01:35.951Z,989.94
2019-05-26T05:02:35.875Z,989.90
2019-05-26T05:03:35.799Z,989.93
2019-05-26T05:04:35.721Z,989.95
2019-05-26T05:05:35.643Z,989.95
2019-05-26T05:06:35.618Z,989.95
2019-05-26T05:09:17.903Z,990.01
2019-05-26T05:10:17.821Z,990.02
2019-05-26T05:11:17.744Z,990.02
2019-05-26T05:12:17.716Z,990.06
2019-05-26T05:13:17.589Z,990.04
2019-05-26T05:14:17.513Z,990.06
2019-05-26T05:15:17.435Z,990.06
2019-05-26T05:16:17.358Z,990.06
2019-05-26T05:17:17.332Z,990.09
2019-05-26T05:18:17.258Z,990.12
2019-05-26T05:19:17.127Z,990.09
2019-05-26T05:20:17.049Z,990.08
2019-05-26T05:21:16.970Z,990.09
2019-05-26T05:22:16.914Z,990.10
2019-05-26T05:23:16.816Z,990.09
2019-05-26T05:24:16.788Z,990.09
2019-05-26T05:25:16.660Z,990.11
2019-05-26T05:26:16.582Z,990.10
2019-05-26T05:27:16.509Z,990.13
2019-05-26T05:28:16.429Z,990.13
2019-05-26T05:29:16.347Z,990.15
2019-05-26T05:30:16.271Z,990.13
2019-05-26T05:31:16.193Z,990.13
2019-05-26T05:32:16.115Z,990.17
2019-05-26T05:33:16.037Z,990.10
2019-05-26T05:34:15.961Z,990.13
2019-05-26T05:35:15.883Z,990.10
2019-05-26T05:36:15.855Z,990.11
2019-05-26T05:37:15.798Z,990.10
2019-05-26T05:38:15.651Z,990.13
2019-05-26T05:39:15.571Z,990.10
2019-05-26T05:40:15.494Z,990.14
2019-05-26T05:41:15.416Z,990.15
2019-05-26T05:42:15.388Z,990.14
2019-05-26T05:43:15.262Z,990.14
2019-05-26T05:44:15.184Z,990.14
2019-05-26T05:45:15.111Z,990.16
2019-05-26T05:46:15.030Z,990.12
2019-05-26T05:47:14.953Z,990.10
2019-05-26T05:48:14.926Z,990.07
2019-05-26T05:49:14.797Z,990.06
2019-05-26T05:50:14.721Z,990.04
2019-05-26T05:51:14.643Z,990.04
2019-05-26T05:52:14.565Z,990.09
2019-05-26T05:53:14.494Z,990.11
2019-05-26T05:54:14.412Z,990.08
2019-05-26T05:55:14.335Z,990.06
2019-05-26T05:56:14.260Z,990.06
2019-05-26T05:57:14.181Z,990.09
2019-05-26T05:58:14.105Z,990.09
2019-05-26T05:59:14.026Z,990.08
2019-05-26T06:00:14.049Z,990.07
2019-05-26T06:01:13.877Z,990.14
2019-05-26T06:02:13.796Z,990.15
2019-05-26T06:03:13.719Z,990.14
2019-05-26T06:04:13.642Z,990.17
2019-05-26T06:05:13.627Z,990.17
2019-05-26T06:06:13.489Z,990.14
2019-05-26T06:07:13.412Z,990.14
2019-05-26T06:08:13.335Z,990.19
2019-05-26T06:09:13.258Z,990.22
2019-05-26T06:10:13.182Z,990.17
2019-05-26T06:11:16.829Z,990.18
2019-05-26T06:12:13.077Z,990.17
2019-05-26T06:13:12.952Z,990.15
2019-05-26T06:14:12.878Z,990.14
2019-05-26T06:15:14.216Z,990.17
2019-05-26T06:16:12.723Z,990.19
2019-05-26T06:17:12.695Z,990.18
2019-05-26T06:18:12.570Z,990.22
2019-05-26T06:19:12.494Z,990.21
2019-05-26T06:20:12.426Z,990.18
2019-05-26T06:21:12.343Z,990.17
2019-05-26T06:22:12.264Z,990.17
2019-05-26T06:23:12.190Z,990.15
2019-05-26T06:24:12.166Z,990.13
2019-05-26T06:25:12.042Z,990.18
2019-05-26T06:26:11.961Z,990.14
2019-05-26T06:27:11.889Z,990.14
2019-05-26T06:28:11.807Z,990.16
2019-05-26T06:29:11.732Z,990.14
2019-05-26T06:30:11.719Z,990.18
2019-05-26T06:31:11.581Z,990.13
2019-05-26T06:32:11.666Z,990.12
2019-05-26T06:33:11.428Z,990.13
2019-05-26T06:34:11.353Z,990.09
2019-05-26T06:35:11.276Z,990.08
2019-05-26T06:36:11.199Z,990.08
2019-05-26T06:37:11.125Z,990.09
2019-05-26T06:38:11.050Z,990.09
2019-05-26T06:39:10.973Z,990.05
2019-05-26T06:40:10.897Z,990.06
2019-05-26T06:41:10.829Z,990.06
2019-05-26T06:42:13.039Z,990.07
2019-05-26T06:43:10.670Z,990.05
2019-05-26T06:44:10.594Z,990.06
2019-05-26T06:45:10.533Z,990.04
2019-05-26T06:46:10.444Z,990.05
2019-05-26T06:47:10.366Z,990.02
2019-05-26T06:48:10.341Z,990.01
2019-05-26T06:49:10.216Z,990.04
2019-05-26T06:50:10.139Z,990.04
2019-05-26T06:51:10.067Z,990.05
2019-05-26T06:52:09.988Z,990.05
2019-05-26T06:53:09.914Z,990.08
2019-05-26T06:54:09.838Z,990.07
2019-05-26T06:55:09.762Z,990.12
2019-05-26T06:56:09.685Z,990.12
2019-05-26T06:57:09.667Z,990.13
2019-05-26T06:58:09.536Z,990.14
2019-05-26T06:59:09.459Z,990.12
2019-05-26T07:00:09.393Z,990.08
2019-05-26T07:01:09.330Z,990.09
2019-05-26T07:02:09.234Z,990.11
2019-05-26T07:03:09.157Z,990.12
2019-05-26T07:04:09.082Z,990.09
2019-05-26T07:05:09.057Z,990.12
2019-05-26T07:06:09.032Z,990.14
2019-05-26T07:07:08.856Z,990.13
2019-05-26T07:08:08.779Z,990.12
2019-05-26T07:09:08.705Z,990.10
2019-05-26T07:10:08.631Z,990.12
2019-05-26T07:11:08.554Z,990.14
2019-05-26T07:12:08.530Z,990.18
2019-05-26T07:13:08.409Z,990.17
2019-05-26T07:14:08.328Z,990.18
2019-05-26T07:15:08.255Z,990.20
2019-05-26T07:16:08.195Z,990.17
2019-05-26T07:17:08.163Z,990.20
2019-05-26T07:18:08.080Z,990.17
2019-05-26T07:20:07.879Z,990.21
2019-05-26T07:21:07.805Z,990.22
2019-05-26T07:22:07.731Z,990.19
2019-05-26T07:23:08.541Z,990.19
2019-05-26T07:24:07.633Z,990.20
2019-05-26T07:25:07.514Z,990.17
2019-05-26T07:26:07.436Z,990.21
2019-05-26T07:27:07.360Z,990.20
2019-05-26T07:28:07.287Z,990.20
2019-05-26T07:29:07.216Z,990.21
2019-05-26T07:30:07.139Z,990.23
2019-05-26T07:31:07.067Z,990.22
2019-05-26T07:32:06.993Z,990.25
2019-05-26T07:33:06.925Z,990.24
2019-05-26T07:34:07.349Z,990.24
2019-05-26T07:35:06.775Z,990.29
2019-05-26T07:36:06.700Z,990.29
2019-05-26T07:37:06.627Z,990.29
2019-05-26T07:38:06.555Z,990.29
2019-05-26T07:39:06.482Z,990.27
2019-05-26T07:40:06.423Z,990.30
2019-05-26T07:41:06.338Z,990.28
2019-05-26T07:42:10.436Z,990.31
2019-05-26T07:43:06.193Z,990.27
2019-05-26T07:44:06.220Z,990.28
2019-05-26T07:45:06.052Z,990.25
2019-05-26T07:46:05.979Z,990.27
2019-05-26T07:47:05.904Z,990.28
2019-05-26T07:48:05.831Z,990.30
2019-05-26T07:49:05.758Z,990.31
2019-05-26T07:50:05.684Z,990.29
2019-05-26T07:51:05.611Z,990.32
2019-05-26T07:52:05.540Z,990.30
2019-05-26T07:53:05.467Z,990.28
2019-05-26T07:54:05.396Z,990.28
2019-05-26T07:55:05.324Z,990.24
2019-05-26T07:56:05.249Z,990.22
2019-05-26T07:57:05.178Z,990.23
2019-05-26T07:58:05.112Z,990.24
2019-05-26T07:59:05.034Z,990.29
2019-05-26T08:00:04.962Z,990.27
2019-05-26T08:01:04.888Z,990.27
2019-05-26T08:02:04.816Z,990.26
2019-05-26T08:03:04.745Z,990.24
2019-05-26T08:04:04.672Z,990.27
2019-05-26T08:05:04.603Z,990.26
2019-05-26T08:06:04.527Z,990.21
2019-05-26T08:07:04.455Z,990.25
2019-05-26T08:08:12.721Z,990.21
2019-05-26T08:09:04.311Z,990.23
2019-05-26T08:10:04.238Z,990.17
2019-05-26T08:11:04.165Z,990.20
2019-05-26T08:12:04.092Z,990.18
2019-05-26T08:13:04.021Z,990.23
2019-05-26T08:14:03.950Z,990.19
2019-05-26T08:15:03.879Z,990.20
2019-05-26T08:16:03.806Z,990.16
2019-05-26T08:17:03.734Z,990.18
2019-05-26T08:18:03.665Z,990.17
2019-05-26T08:19:03.591Z,990.20
2019-05-26T08:20:03.520Z,990.12
2019-05-26T08:21:03.445Z,990.14
2019-05-26T08:22:03.374Z,990.14
2019-05-26T08:23:03.304Z,990.15
2019-05-26T08:24:50.722Z,990.18
2019-05-26T08:25:50.679Z,990.18
2019-05-26T08:26:50.576Z,990.15
2019-05-26T08:27:53.533Z,990.17
2019-05-26T08:28:50.435Z,990.18
2019-05-26T08:29:50.363Z,990.20
2019-05-26T08:30:50.290Z,990.20
2019-05-26T08:31:52.841Z,990.16
2019-05-26T08:32:50.149Z,990.14
2019-05-26T08:33:50.077Z,990.15
2019-05-26T08:34:50.004Z,990.10
2019-05-26T08:35:49.935Z,990.15
2019-05-26T08:36:52.483Z,990.16
2019-05-26T08:37:49.791Z,990.16
2019-05-26T08:38:49.724Z,990.14
2019-05-26T08:39:49.657Z,990.12
2019-05-26T08:40:49.577Z,990.10
2019-05-26T08:41:49.510Z,990.13
2019-05-26T08:42:49.436Z,990.10
2019-05-26T08:43:49.364Z,990.04
2019-05-26T08:44:49.295Z,990.03
2019-05-26T08:45:49.223Z,990.04
2019-05-26T08:46:49.153Z,990.07
2019-05-26T08:47:49.081Z,989.96
2019-05-26T08:48:49.010Z,990.07
2019-05-26T08:49:48.941Z,990.10
2019-05-26T08:50:48.867Z,990.05
2019-05-26T08:51:48.800Z,990.08
2019-05-26T08:52:48.726Z,990.04
2019-05-26T08:53:48.655Z,990.05
2019-05-26T08:54:48.584Z,990.07
2019-05-26T08:55:48.512Z,990.01
2019-05-26T08:56:48.440Z,990.02
2019-05-26T08:57:48.380Z,990.03
2019-05-26T08:58:48.298Z,989.99
2019-05-26T08:59:48.226Z,990.00
2019-05-26T09:00:48.152Z,989.98
2019-05-26T09:01:48.082Z,990.01
2019-05-26T09:02:48.009Z,990.00
2019-05-26T09:03:47.936Z,990.00
2019-05-26T09:04:47.928Z,990.02
2019-05-26T09:05:47.792Z,989.99
2019-05-26T09:06:47.724Z,989.99
2019-05-26T09:07:47.647Z,990.04
2019-05-26T09:08:47.578Z,990.03
2019-05-26T09:09:47.503Z,990.02
2019-05-26T09:10:47.429Z,989.98
2019-05-26T09:11:47.359Z,989.98
2019-05-26T09:12:59.711Z,989.99
2019-05-26T09:13:47.214Z,989.97
2019-05-26T09:14:47.141Z,989.99
2019-05-26T09:15:47.068Z,990.00
2019-05-26T09:16:47.000Z,990.01
2019-05-26T09:17:46.952Z,989.99
2019-05-26T09:18:46.851Z,990.03
2019-05-26T09:19:46.779Z,989.99
2019-05-26T09:20:46.707Z,989.96
2019-05-26T09:21:46.635Z,989.97
2019-05-26T09:22:46.565Z,989.99
2019-05-26T09:23:46.499Z,989.99
2019-05-26T09:24:46.416Z,989.98
2019-05-26T09:25:46.752Z,989.95
2019-05-26T09:26:46.271Z,989.96
2019-05-26T09:27:46.201Z,989.94
2019-05-26T09:28:46.126Z,989.92
2019-05-26T09:29:46.054Z,989.94
2019-05-26T09:30:45.981Z,989.89
2019-05-26T09:31:45.908Z,989.90
2019-05-26T09:32:45.835Z,989.90
2019-05-26T09:33:45.764Z,989.90
2019-05-26T09:34:45.690Z,989.95
2019-05-26T09:35:45.618Z,989.91
2019-05-26T09:36:45.546Z,989.91
2019-05-26T09:37:45.472Z,989.91
2019-05-26T09:38:45.422Z,989.89
2019-05-26T09:39:45.329Z,989.84
2019-05-26T09:40:45.256Z,989.87
2019-05-26T09:41:45.183Z,989.89
2019-05-26T09:42:45.110Z,989.88
2019-05-26T09:43:45.037Z,989.90
2019-05-26T09:44:44.965Z,989.92
2019-05-26T09:45:44.969Z,989.86
2019-05-26T09:46:44.819Z,989.86
2019-05-26T09:47:44.747Z,989.86
2019-05-26T09:48:44.675Z,989.88
2019-05-26T09:49:44.607Z,989.88
2019-05-26T09:50:44.530Z,989.87
2019-05-26T09:51:44.458Z,989.84
2019-05-26T09:52:44.386Z,989.87
2019-05-26T09:53:44.312Z,989.85
2019-05-26T09:54:44.339Z,989.86
2019-05-26T09:55:44.167Z,989.88
2019-05-26T09:56:44.097Z,989.83
2019-05-26T09:57:44.025Z,989.84
2019-05-26T09:58:43.950Z,989.89
2019-05-26T09:59:43.879Z,989.82
2019-05-26T10:00:43.830Z,989.87
2019-05-26T10:01:43.736Z,989.90
2019-05-26T10:02:43.662Z,989.90
2019-05-26T10:03:43.589Z,989.88
2019-05-26T10:04:43.517Z,989.92
2019-05-26T10:05:43.447Z,989.92
2019-05-26T10:06:43.372Z,989.90
2019-05-26T10:07:43.302Z,989.87
2019-05-26T10:08:43.232Z,989.86
2019-05-26T10:09:43.156Z,989.82
2019-05-26T10:10:43.085Z,989.82
2019-05-26T10:11:43.026Z,989.87
2019-05-26T10:12:42.939Z,989.83
2019-05-26T10:13:42.866Z,989.90
2019-05-26T10:14:42.794Z,989.86
2019-05-26T10:15:42.725Z,989.83
2019-05-26T10:16:42.652Z,989.86
2019-05-26T10:17:42.579Z,989.81
2019-05-26T10:18:42.507Z,989.82
2019-05-26T10:19:42.435Z,989.86
2019-05-26T10:20:42.362Z,989.85
2019-05-26T10:21:42.290Z,989.84
2019-05-26T10:22:42.217Z,989.75
2019-05-26T10:23:42.145Z,989.86
2019-05-26T10:24:42.074Z,989.88
2019-05-26T10:25:42.006Z,989.82
2019-05-26T10:26:41.931Z,989.82
2019-05-26T10:27:41.874Z,989.85
2019-05-26T10:28:41.790Z,989.80
2019-05-26T10:29:41.716Z,989.85
2019-05-26T10:30:41.644Z,989.77
2019-05-26T10:31:41.571Z,989.76
2019-05-26T10:32:41.525Z,989.81
2019-05-26T10:33:41.431Z,989.78
2019-05-26T10:34:41.359Z,989.73
2019-05-26T10:35:41.286Z,989.75
2019-05-26T10:36:41.213Z,989.77
2019-05-26T10:37:41.143Z,989.79
2019-05-26T10:38:41.080Z,989.71
2019-05-26T10:39:40.999Z,989.73
2019-05-26T10:40:40.929Z,989.76
2019-05-26T10:41:40.856Z,989.77
2019-05-26T10:42:40.786Z,989.75
2019-05-26T10:43:47.303Z,989.79
2019-05-26T10:44:40.642Z,989.74
2019-05-26T10:45:40.571Z,989.73
2019-05-26T10:46:40.498Z,989.70
2019-05-26T10:47:40.427Z,989.69
2019-05-26T10:48:40.367Z,989.67
2019-05-26T10:49:40.284Z,989.67
2019-05-26T10:50:40.215Z,989.61
2019-05-26T10:51:40.140Z,989.62
2019-05-26T10:52:40.076Z,989.57
2019-05-26T10:53:39.999Z,989.54
2019-05-26T10:54:39.926Z,989.58
2019-05-26T10:55:39.857Z,989.58
2019-05-26T10:56:39.784Z,989.59
2019-05-26T10:57:39.804Z,989.62
2019-05-26T10:59:39.569Z,989.54
2019-05-26T11:00:39.499Z,989.49
2019-05-26T11:01:43.472Z,989.49
2019-05-26T11:02:39.356Z,989.46
2019-05-26T11:03:39.290Z,989.45
2019-05-26T11:04:39.216Z,989.46
2019-05-26T11:05:39.146Z,989.45
2019-05-26T11:06:41.696Z,989.44
2019-05-26T11:07:41.628Z,989.49
2019-05-26T11:08:45.203Z,989.47
2019-05-26T11:09:38.864Z,989.42
2019-05-26T11:10:38.794Z,989.42
2019-05-26T11:11:38.726Z,989.45
2019-05-26T11:12:38.659Z,989.35
2019-05-26T11:13:40.727Z,989.42
2019-05-26T11:14:41.137Z,989.37
2019-05-26T11:15:38.446Z,989.40
2019-05-26T11:16:38.380Z,989.40
2019-05-26T11:17:38.372Z,989.40
2019-05-26T11:18:38.238Z,989.37
2019-05-26T11:19:38.195Z,989.38
2019-05-26T11:20:38.098Z,989.32
2019-05-26T11:21:38.034Z,989.35
2019-05-26T11:22:37.960Z,989.31
2019-05-26T11:23:37.892Z,989.29
2019-05-26T11:24:37.823Z,989.29
2019-05-26T11:25:37.754Z,989.26
2019-05-26T11:26:37.682Z,989.23
2019-05-26T11:28:40.117Z,989.31
2019-05-26T11:29:40.048Z,989.45
2019-05-26T11:31:42.481Z,989.29
2019-05-26T11:32:42.414Z,989.40
2019-05-26T11:33:42.404Z,989.27
2019-05-26T11:34:42.275Z,989.38
2019-05-26T11:35:42.205Z,989.27
2019-05-26T11:37:42.073Z,989.19
2019-05-26T11:38:41.999Z,989.21
2019-05-26T11:39:41.931Z,989.16
2019-05-26T11:40:41.882Z,989.15
2019-05-26T11:41:41.793Z,989.15
2019-05-26T11:42:44.752Z,989.17
2019-05-26T11:43:41.659Z,989.37
2019-05-26T11:44:41.590Z,989.34
2019-05-26T11:45:41.523Z,989.37
2019-05-26T11:46:41.456Z,989.42
2019-05-26T11:47:41.388Z,989.39
2019-05-26T11:48:41.321Z,989.37
2019-05-26T11:49:41.264Z,989.37
2019-05-26T11:50:41.190Z,989.44
2019-05-26T11:51:41.124Z,989.49
2019-05-26T11:52:41.059Z,989.15
2019-05-26T11:53:40.993Z,989.13
2019-05-26T11:54:40.926Z,989.11
2019-05-26T11:55:40.863Z,989.08
2019-05-26T11:56:40.796Z,989.37
2019-05-26T11:57:40.731Z,989.44
2019-05-26T11:58:40.666Z,989.39
2019-05-26T11:59:40.609Z,989.46
2019-05-26T12:00:40.536Z,989.60
2019-05-26T12:01:40.473Z,989.30
2019-05-26T12:02:40.408Z,989.60
2019-05-26T12:03:40.345Z,989.57
2019-05-26T12:04:40.276Z,989.16
2019-05-26T12:05:40.214Z,989.05
2019-05-26T12:06:40.150Z,988.98
2019-05-26T12:07:40.087Z,989.00
2019-05-26T12:08:40.022Z,989.61
2019-05-26T12:09:39.966Z,989.59
2019-05-26T12:10:39.893Z,989.63
2019-05-26T12:11:39.828Z,989.63
2019-05-26T12:13:39.704Z,989.65
2019-05-26T12:14:39.634Z,989.66
2019-05-26T12:15:39.570Z,989.73
2019-05-26T12:16:39.514Z,988.88
2019-05-26T12:17:39.442Z,988.89
2019-05-26T12:18:39.377Z,989.22
2019-05-26T12:19:39.316Z,989.79
2019-05-26T12:20:39.251Z,989.41
2019-05-26T12:21:39.219Z,988.94
2019-05-26T12:22:39.128Z,989.36
2019-05-26T12:23:39.061Z,989.82
2019-05-26T12:24:38.996Z,989.77
2019-05-26T12:25:38.935Z,989.22
2019-05-26T12:26:38.870Z,989.52
2019-05-26T12:27:38.809Z,989.70
2019-05-26T12:28:38.746Z,989.74
2019-05-26T12:29:38.717Z,989.74
2019-05-26T12:31:56.391Z,989.70
2019-05-26T12:32:59.011Z,989.03
2019-05-26T12:33:56.265Z,989.52
2019-05-26T12:34:56.204Z,988.84
2019-05-26T12:35:56.142Z,989.40
2019-05-26T12:36:56.081Z,988.88
2019-05-26T12:37:56.019Z,988.74